createdAt,value
2019-05-15T00:00:32.664Z,1022.79
2019-05-15T00:01:33.749Z,1022.80
2019-05-15T00:02:35.147Z,1022.81
2019-05-15T00:03:38.854Z,1022.81
2019-05-15T00:04:38.322Z,1022.79
2019-05-15T00:05:39.459Z,1022.80
2019-05-15T00:06:40.666Z,1022.81
2019-05-15T00:07:42.070Z,1022.79
2019-05-15T00:08:43.480Z,1022.82
2019-05-15T00:09:44.890Z,1022.80
2019-05-15T00:10:48.373Z,1022.78
2019-05-15T00:11:48.180Z,1022.77
2019-05-15T00:12:49.030Z,1022.76
2019-05-15T00:13:50.429Z,1022.73
2019-05-15T00:14:51.843Z,1022.72
2019-05-15T00:15:53.254Z,1022.68
2019-05-15T00:16:54.653Z,1022.72
2019-05-15T00:17:57.799Z,1022.64
2019-05-15T00:18:58.985Z,1022.71
2019-05-15T00:19:58.791Z,1022.69
2019-05-15T00:21:00.183Z,1022.68
2019-05-15T00:22:01.595Z,1022.66
2019-05-15T00:23:02.987Z,1022.69
2019-05-15T00:24:04.424Z,1022.67
2019-05-15T00:25:05.841Z,1022.66
2019-05-15T00:26:08.985Z,1022.67
2019-05-15T00:27:08.630Z,1022.65
2019-05-15T00:28:10.029Z,1022.68
2019-05-15T00:29:15.816Z,1022.70
2019-05-15T00:30:12.806Z,1022.65
2019-05-15T00:31:14.204Z,1022.66
2019-05-15T00:32:15.600Z,1022.61
2019-05-15T00:33:19.156Z,1022.61
2019-05-15T00:34:18.450Z,1022.64
2019-05-15T00:35:19.739Z,1022.63
2019-05-15T00:36:21.143Z,1022.61
2019-05-15T00:37:22.531Z,1022.63
2019-05-15T00:38:23.925Z,1022.65
2019-05-15T00:39:25.316Z,1022.60
2019-05-15T00:40:28.773Z,1022.60
2019-05-15T00:41:28.046Z,1022.61
2019-05-15T00:42:29.435Z,1022.56
2019-05-15T00:43:30.815Z,1022.59
2019-05-15T00:44:32.207Z,1022.57
2019-05-15T00:45:33.599Z,1022.59
2019-05-15T00:46:34.980Z,1022.62
2019-05-15T00:47:36.371Z,1022.57
2019-05-15T00:48:39.494Z,1022.52
2019-05-15T00:49:39.108Z,1022.51
2019-05-15T00:50:40.490Z,1022.47
2019-05-15T00:51:41.876Z,1022.51
2019-05-15T00:52:43.260Z,1022.49
2019-05-15T00:53:44.650Z,1022.45
2019-05-15T00:54:48.244Z,1022.44
2019-05-15T00:55:48.572Z,1022.48
2019-05-15T00:56:48.718Z,1022.48
2019-05-15T00:57:50.117Z,1022.44
2019-05-15T00:58:51.504Z,1022.45
2019-05-15T00:59:52.885Z,1022.41
2019-05-15T01:00:54.277Z,1022.41
2019-05-15T01:01:55.662Z,1022.37
2019-05-15T01:02:57.824Z,1022.35
2019-05-15T01:03:58.625Z,1022.38
2019-05-15T01:04:59.743Z,1022.39
2019-05-15T01:06:01.119Z,1022.40
2019-05-15T01:07:02.510Z,1022.36
2019-05-15T01:08:03.909Z,1022.40
2019-05-15T01:09:05.294Z,1022.33
2019-05-15T01:10:06.672Z,1022.33
2019-05-15T01:11:09.177Z,1022.30
2019-05-15T01:12:09.408Z,1022.29
2019-05-15T01:13:10.802Z,1022.30
2019-05-15T01:14:12.328Z,1022.30
2019-05-15T01:15:13.532Z,1022.31
2019-05-15T01:16:14.918Z,1022.31
2019-05-15T01:17:18.341Z,1022.29
2019-05-15T01:18:18.753Z,1022.29
2019-05-15T01:19:19.022Z,1022.26
2019-05-15T01:20:20.446Z,1022.26
2019-05-15T01:21:21.834Z,1022.24
2019-05-15T01:22:23.222Z,1022.22
2019-05-15T01:23:24.611Z,1022.24
2019-05-15T01:24:28.121Z,1022.21
2019-05-15T01:25:28.047Z,1022.21
2019-05-15T01:26:28.695Z,1022.22
2019-05-15T01:27:30.085Z,1022.20
2019-05-15T01:28:31.471Z,1022.18
2019-05-15T01:29:41.995Z,1022.14
2019-05-15T01:30:34.195Z,1022.14
2019-05-15T01:31:37.894Z,1022.19
2019-05-15T01:32:39.121Z,1022.17
2019-05-15T01:33:39.010Z,1022.15
2019-05-15T01:34:39.615Z,1022.16
2019-05-15T01:35:40.993Z,1022.16
2019-05-15T01:36:42.383Z,1022.11
2019-05-15T01:37:43.787Z,1022.10
2019-05-15T01:38:45.177Z,1022.10
2019-05-15T01:39:48.415Z,1022.12
2019-05-15T01:40:48.471Z,1022.12
2019-05-15T01:41:49.656Z,1022.10
2019-05-15T01:42:50.591Z,1022.10
2019-05-15T01:43:51.969Z,1022.14
2019-05-15T01:44:53.356Z,1022.15
2019-05-15T01:45:54.736Z,1022.14
2019-05-15T01:46:56.123Z,1022.14
2019-05-15T01:47:58.585Z,1022.14
2019-05-15T01:48:58.845Z,1022.12
2019-05-15T01:50:00.227Z,1022.12
2019-05-15T01:51:01.614Z,1022.12
2019-05-15T01:52:02.995Z,1022.16
2019-05-15T01:53:04.385Z,1022.13
2019-05-15T01:54:05.764Z,1022.15
2019-05-15T01:55:08.833Z,1022.10
2019-05-15T01:56:08.659Z,1022.11
2019-05-15T01:57:09.834Z,1022.05
2019-05-15T01:58:11.213Z,1022.05
2019-05-15T01:59:12.595Z,1022.09
2019-05-15T02:00:13.989Z,1022.03
2019-05-15T02:01:15.369Z,1022.08
2019-05-15T02:02:18.574Z,1022.03
2019-05-15T02:03:18.407Z,1022.01
2019-05-15T02:04:19.699Z,1022.00
2019-05-15T02:05:20.823Z,1022.00
2019-05-15T02:06:22.214Z,1021.97
2019-05-15T02:07:23.606Z,1021.93
2019-05-15T02:08:24.988Z,1021.98
2019-05-15T02:09:27.941Z,1021.96
2019-05-15T02:10:29.194Z,1021.92
2019-05-15T02:11:29.070Z,1021.92
2019-05-15T02:12:30.460Z,1021.92
2019-05-15T02:13:31.863Z,1021.92
2019-05-15T02:14:33.230Z,1021.94
2019-05-15T02:15:34.611Z,1021.94
2019-05-15T02:16:35.996Z,1021.91
2019-05-15T02:17:39.103Z,1021.87
2019-05-15T02:18:39.114Z,1021.89
2019-05-15T02:19:40.103Z,1021.90
2019-05-15T02:20:41.496Z,1021.91
2019-05-15T02:21:42.891Z,1021.88
2019-05-15T02:22:44.275Z,1021.90
2019-05-15T02:23:48.021Z,1021.88
2019-05-15T02:24:48.247Z,1021.86
2019-05-15T02:25:48.358Z,1021.88
2019-05-15T02:26:49.741Z,1021.84
2019-05-15T02:27:51.133Z,1021.87
2019-05-15T02:28:52.519Z,1021.83
2019-05-15T02:30:11.410Z,1021.83
2019-05-15T02:30:55.246Z,1021.86
2019-05-15T02:31:59.247Z,1021.81
2019-05-15T02:32:58.958Z,1021.83
2019-05-15T02:33:59.335Z,1021.78
2019-05-15T02:35:00.722Z,1021.80
2019-05-15T02:36:02.102Z,1021.80
2019-05-15T02:37:03.487Z,1021.82
2019-05-15T02:38:04.872Z,1021.81
2019-05-15T02:39:08.682Z,1021.78
2019-05-15T02:40:09.938Z,1021.79
2019-05-15T02:41:09.880Z,1021.78
2019-05-15T02:42:10.303Z,1021.77
2019-05-15T02:43:11.693Z,1021.82
2019-05-15T02:44:13.073Z,1021.83
2019-05-15T02:45:14.465Z,1021.79
2019-05-15T02:46:19.155Z,1021.79
2019-05-15T02:47:19.686Z,1021.79
2019-05-15T02:48:19.998Z,1021.81
2019-05-15T02:49:20.527Z,1021.80
2019-05-15T02:50:21.908Z,1021.78
2019-05-15T02:51:23.298Z,1021.76
2019-05-15T02:52:24.706Z,1021.80
2019-05-15T02:53:26.083Z,1021.84
2019-05-15T02:54:30.003Z,1021.84
2019-05-15T02:55:29.711Z,1021.83
2019-05-15T02:56:30.182Z,1021.79
2019-05-15T02:57:31.561Z,1021.77
2019-05-15T02:58:32.944Z,1021.80
2019-05-15T02:59:34.336Z,1021.77
2019-05-15T03:00:45.996Z,1021.76
2019-05-15T03:01:40.002Z,1021.78
2019-05-15T03:02:41.152Z,1021.80
2019-05-15T03:03:39.799Z,1021.77
2019-05-15T03:04:41.181Z,1021.75
2019-05-15T03:05:42.648Z,1021.77
2019-05-15T03:06:44.026Z,1021.75
2019-05-15T03:07:45.411Z,1021.73
2019-05-15T03:08:49.197Z,1021.74
2019-05-15T03:09:49.694Z,1021.74
2019-05-15T03:10:49.944Z,1021.71
2019-05-15T03:11:50.853Z,1021.74
2019-05-15T03:12:52.247Z,1021.74
2019-05-15T03:13:53.630Z,1021.72
2019-05-15T03:14:55.004Z,1021.71
2019-05-15T03:15:59.470Z,1021.70
2019-05-15T03:16:59.636Z,1021.71
2019-05-15T03:18:00.374Z,1021.71
2019-05-15T03:19:00.445Z,1021.73
2019-05-15T03:20:01.851Z,1021.74
2019-05-15T03:21:03.265Z,1021.71
2019-05-15T03:22:04.653Z,1021.72
2019-05-15T03:23:09.055Z,1021.73
2019-05-15T03:24:09.853Z,1021.68
2019-05-15T03:25:10.502Z,1021.68
2019-05-15T03:26:10.125Z,1021.70
2019-05-15T03:27:11.497Z,1021.69
2019-05-15T03:28:12.890Z,1021.69
2019-05-15T03:29:14.283Z,1021.70
2019-05-15T03:30:21.023Z,1021.68
2019-05-15T03:31:35.066Z,1021.68
2019-05-15T03:32:33.510Z,1021.65
2019-05-15T03:33:27.076Z,1021.64
2019-05-15T03:34:28.399Z,1021.62
2019-05-15T03:35:22.983Z,1021.62
2019-05-15T03:36:24.612Z,1021.60
2019-05-15T03:37:25.151Z,1021.58
2019-05-15T03:38:29.595Z,1021.58
2019-05-15T03:39:29.626Z,1021.58
2019-05-15T03:40:29.943Z,1021.56
2019-05-15T03:41:30.585Z,1021.59
2019-05-15T03:42:31.977Z,1021.58
2019-05-15T03:43:33.358Z,1021.57
2019-05-15T03:44:34.746Z,1021.57
2019-05-15T03:45:39.989Z,1021.58
2019-05-15T03:46:39.911Z,1021.59
2019-05-15T03:47:40.177Z,1021.60
2019-05-15T03:48:40.593Z,1021.58
2019-05-15T03:49:41.560Z,1021.61
2019-05-15T03:50:42.943Z,1021.60
2019-05-15T03:51:45.977Z,1021.55
2019-05-15T03:52:45.690Z,1021.57
2019-05-15T03:53:49.454Z,1021.55
2019-05-15T03:54:49.603Z,1021.54
2019-05-15T03:55:49.804Z,1021.52
2019-05-15T03:56:51.200Z,1021.53
2019-05-15T03:57:52.584Z,1021.52
2019-05-15T03:58:53.984Z,1021.50
2019-05-15T03:59:55.367Z,1021.54
2019-05-15T04:00:59.869Z,1021.51
2019-05-15T04:01:59.913Z,1021.51
2019-05-15T04:03:00.343Z,1021.53
2019-05-15T04:04:01.729Z,1021.55
2019-05-15T04:05:03.129Z,1021.53
2019-05-15T04:06:04.518Z,1021.54
2019-05-15T04:07:09.005Z,1021.51
2019-05-15T04:08:10.391Z,1021.54
2019-05-15T04:09:09.578Z,1021.52
2019-05-15T04:10:10.368Z,1021.57
2019-05-15T04:11:11.334Z,1021.58
2019-05-15T04:12:12.728Z,1021.56
2019-05-15T04:13:14.116Z,1021.55
2019-05-15T04:14:15.518Z,1021.57
2019-05-15T04:15:18.743Z,1021.55
2019-05-15T04:16:19.262Z,1021.56
2019-05-15T04:17:20.183Z,1021.54
2019-05-15T04:18:21.549Z,1021.56
2019-05-15T04:19:22.937Z,1021.59
2019-05-15T04:20:24.327Z,1021.57
2019-05-15T04:21:25.727Z,1021.57
2019-05-15T04:22:29.090Z,1021.55
2019-05-15T04:23:30.071Z,1021.55
2019-05-15T04:24:30.110Z,1021.53
2019-05-15T04:25:31.194Z,1021.49
2019-05-15T04:26:32.546Z,1021.54
2019-05-15T04:27:33.930Z,1021.53
2019-05-15T04:28:35.323Z,1021.52
2019-05-15T04:29:39.500Z,1021.55
2019-05-15T04:30:39.288Z,1021.56
2019-05-15T04:31:51.653Z,1021.55
2019-05-15T04:32:40.775Z,1021.59
2019-05-15T04:33:42.175Z,1021.56
2019-05-15T04:34:43.570Z,1021.57
2019-05-15T04:35:44.960Z,1021.56
2019-05-15T04:36:49.468Z,1021.59
2019-05-15T04:37:49.541Z,1021.63
2019-05-15T04:38:49.755Z,1021.61
2019-05-15T04:39:50.412Z,1021.63
2019-05-15T04:40:51.797Z,1021.62
2019-05-15T04:41:53.180Z,1021.62
2019-05-15T04:42:54.575Z,1021.59
2019-05-15T04:43:55.968Z,1021.60
2019-05-15T04:44:59.477Z,1021.61
2019-05-15T04:46:02.615Z,1021.55
2019-05-15T04:47:00.064Z,1021.61
2019-05-15T04:48:01.465Z,1021.62
2019-05-15T04:49:02.873Z,1021.61
2019-05-15T04:50:04.259Z,1021.63
2019-05-15T04:51:05.649Z,1021.60
2019-05-15T04:52:09.760Z,1021.61
2019-05-15T04:53:10.609Z,1021.62
2019-05-15T04:54:09.912Z,1021.66
2019-05-15T04:55:11.125Z,1021.65
2019-05-15T04:56:12.519Z,1021.66
2019-05-15T04:57:13.908Z,1021.70
2019-05-15T04:58:15.303Z,1021.69
2019-05-15T04:59:19.273Z,1021.67
2019-05-15T05:00:19.889Z,1021.67
2019-05-15T05:01:19.941Z,1021.63
2019-05-15T05:02:26.571Z,1021.63
2019-05-15T05:03:22.118Z,1021.62
2019-05-15T05:04:23.526Z,1021.64
2019-05-15T05:05:24.916Z,1021.63
2019-05-15T05:06:29.233Z,1021.62
2019-05-15T05:07:29.592Z,1021.62
2019-05-15T05:08:29.288Z,1021.61
2019-05-15T05:09:30.365Z,1021.61
2019-05-15T05:10:31.763Z,1021.61
2019-05-15T05:11:33.151Z,1021.62
2019-05-15T05:12:34.548Z,1021.59
2019-05-15T05:13:35.942Z,1021.60
2019-05-15T05:14:39.157Z,1021.60
2019-05-15T05:15:38.868Z,1021.60
2019-05-15T05:16:40.050Z,1021.61
2019-05-15T05:17:41.443Z,1021.57
2019-05-15T05:18:42.841Z,1021.58
2019-05-15T05:19:44.229Z,1021.57
2019-05-15T05:20:45.624Z,1021.57
2019-05-15T05:21:47.917Z,1021.61
2019-05-15T05:22:48.414Z,1021.58
2019-05-15T05:23:49.763Z,1021.57
2019-05-15T05:24:51.159Z,1021.55
2019-05-15T05:25:52.549Z,1021.61
2019-05-15T05:26:53.946Z,1021.67
2019-05-15T05:27:55.337Z,1021.64
2019-05-15T05:29:01.323Z,1021.67
2019-05-15T05:29:59.048Z,1021.70
2019-05-15T05:31:00.464Z,1021.67
2019-05-15T05:32:01.852Z,1021.67
2019-05-15T05:33:03.246Z,1021.67
2019-05-15T05:34:04.646Z,1021.67
2019-05-15T05:35:08.197Z,1021.70
2019-05-15T05:36:07.960Z,1021.69
2019-05-15T05:37:08.778Z,1021.61
2019-05-15T05:38:10.200Z,1021.74
2019-05-15T05:39:13.309Z,1021.63
2019-05-15T05:40:12.948Z,1021.63
2019-05-15T05:41:14.350Z,1021.64
2019-05-15T05:42:15.730Z,1021.66
2019-05-15T05:43:18.387Z,1021.67
2019-05-15T05:44:18.928Z,1021.69
2019-05-15T05:45:19.827Z,1021.65
2019-05-15T05:46:21.249Z,1021.65
2019-05-15T05:47:22.634Z,1021.65
2019-05-15T05:48:24.051Z,1021.69
2019-05-15T05:49:25.443Z,1021.71
2019-05-15T05:50:28.803Z,1021.86
2019-05-15T05:51:28.288Z,1021.86
2019-05-15T05:52:29.577Z,1021.74
2019-05-15T05:53:30.969Z,1021.67
2019-05-15T05:54:32.385Z,1021.68
2019-05-15T05:55:33.773Z,1021.66
2019-05-15T05:56:35.161Z,1021.64
2019-05-15T05:57:38.124Z,1021.66
2019-05-15T05:58:38.966Z,1021.63
2019-05-15T05:59:39.309Z,1021.63
2019-05-15T06:00:40.721Z,1021.61
2019-05-15T06:01:44.194Z,1021.60
2019-05-15T06:02:47.582Z,1021.64
2019-05-15T06:03:44.876Z,1021.61
2019-05-15T06:04:47.839Z,1021.61
2019-05-15T06:05:49.475Z,1021.61
2019-05-15T06:07:05.555Z,1021.60
2019-05-15T06:07:50.371Z,1021.63
2019-05-15T06:08:51.746Z,1021.58
2019-05-15T06:09:53.146Z,1021.65
2019-05-15T06:10:54.538Z,1021.61
2019-05-15T06:11:58.168Z,1021.61
2019-05-15T06:12:58.714Z,1021.64
2019-05-15T06:13:58.685Z,1021.64
2019-05-15T06:15:00.989Z,1021.61
2019-05-15T06:16:02.397Z,1021.58
2019-05-15T06:17:03.815Z,1021.60
2019-05-15T06:18:05.203Z,1021.61
2019-05-15T06:19:08.282Z,1021.61
2019-05-15T06:20:08.101Z,1021.60
2019-05-15T06:21:09.438Z,1021.64
2019-05-15T06:22:10.681Z,1021.66
2019-05-15T06:23:12.076Z,1021.65
2019-05-15T06:24:13.513Z,1021.67
2019-05-15T06:25:14.908Z,1021.69
2019-05-15T06:26:16.300Z,1021.68
2019-05-15T06:27:19.826Z,1021.66
2019-05-15T06:28:19.510Z,1021.65
2019-05-15T06:29:20.484Z,1021.66
2019-05-15T06:30:26.705Z,1021.64
2019-05-15T06:31:23.278Z,1021.64
2019-05-15T06:32:24.739Z,1021.66
2019-05-15T06:33:27.756Z,1021.65
2019-05-15T06:34:28.596Z,1021.69
2019-05-15T06:35:31.271Z,1021.71
2019-05-15T06:36:30.341Z,1021.70
2019-05-15T06:37:31.734Z,1021.71
2019-05-15T06:38:33.139Z,1021.67
2019-05-15T06:39:34.544Z,1021.65
2019-05-15T06:40:35.970Z,1021.67
2019-05-15T06:41:39.014Z,1021.64
2019-05-15T06:42:39.371Z,1021.67
2019-05-15T06:43:40.096Z,1021.65
2019-05-15T06:44:41.495Z,1021.59
2019-05-15T06:45:42.911Z,1021.58
2019-05-15T06:46:44.309Z,1021.61
2019-05-15T06:47:45.719Z,1021.62
2019-05-15T06:48:48.613Z,1021.56
2019-05-15T06:49:48.635Z,1021.57
2019-05-15T06:50:49.861Z,1021.62
2019-05-15T06:51:51.270Z,1021.56
2019-05-15T06:52:52.665Z,1021.69
2019-05-15T06:53:54.072Z,1021.65
2019-05-15T06:54:55.469Z,1021.63
2019-05-15T06:55:58.495Z,1021.60
2019-05-15T06:56:58.347Z,1021.62
2019-05-15T06:57:59.616Z,1021.66
2019-05-15T06:59:01.015Z,1021.64
2019-05-15T07:00:02.414Z,1021.61
2019-05-15T07:01:03.816Z,1021.58
2019-05-15T07:02:05.242Z,1021.63
2019-05-15T07:03:18.117Z,1021.60
2019-05-15T07:04:08.414Z,1021.53
2019-05-15T07:05:09.352Z,1021.56
2019-05-15T07:06:10.752Z,1021.56
2019-05-15T07:07:12.149Z,1021.53
2019-05-15T07:08:13.554Z,1021.56
2019-05-15T07:09:14.983Z,1021.54
2019-05-15T07:10:18.862Z,1021.52
2019-05-15T07:11:19.135Z,1021.52
2019-05-15T07:12:19.109Z,1021.48
2019-05-15T07:13:20.509Z,1021.43
2019-05-15T07:14:21.915Z,1021.44
2019-05-15T07:15:23.346Z,1021.43
2019-05-15T07:16:24.739Z,1021.56
2019-05-15T07:17:28.586Z,1021.41
2019-05-15T07:18:28.382Z,1021.40
2019-05-15T07:19:28.863Z,1021.38
2019-05-15T07:20:30.278Z,1021.46
2019-05-15T07:21:31.669Z,1021.42
2019-05-15T07:22:33.062Z,1021.42
2019-05-15T07:23:34.467Z,1021.46
2019-05-15T07:24:38.213Z,1021.50
2019-05-15T07:25:39.010Z,1021.39
2019-05-15T07:26:39.136Z,1021.38
2019-05-15T07:27:39.980Z,1021.44
2019-05-15T07:28:41.390Z,1021.35
2019-05-15T07:29:42.792Z,1021.36
2019-05-15T07:30:44.186Z,1021.31
2019-05-15T07:31:47.710Z,1021.32
2019-05-15T07:32:48.733Z,1021.36
2019-05-15T07:33:49.208Z,1021.37
2019-05-15T07:34:49.685Z,1021.35
2019-05-15T07:35:51.080Z,1021.32
2019-05-15T07:36:52.486Z,1021.31
2019-05-15T07:37:53.904Z,1021.43
2019-05-15T07:38:57.809Z,1021.39
2019-05-15T07:39:58.864Z,1021.43
2019-05-15T07:41:03.853Z,1021.40
2019-05-15T07:41:59.409Z,1021.40
2019-05-15T07:43:00.809Z,1021.39
2019-05-15T07:44:02.209Z,1021.42
2019-05-15T07:45:03.610Z,1021.39
2019-05-15T07:46:05.031Z,1021.51
2019-05-15T07:47:08.735Z,1021.48
2019-05-15T07:48:09.165Z,1021.51
2019-05-15T07:49:09.289Z,1021.43
2019-05-15T07:50:10.560Z,1021.45
2019-05-15T07:51:11.990Z,1021.44
2019-05-15T07:52:13.376Z,1021.53
2019-05-15T07:53:14.784Z,1021.44
2019-05-15T07:54:18.042Z,1021.38
2019-05-15T07:55:18.480Z,1021.45
2019-05-15T07:56:18.897Z,1021.43
2019-05-15T07:57:20.300Z,1021.36
2019-05-15T07:58:22.070Z,1021.36
2019-05-15T07:59:23.174Z,1021.44
2019-05-15T08:00:24.586Z,1021.33
2019-05-15T08:01:25.989Z,1021.33
2019-05-15T08:02:28.426Z,1021.36
2019-05-15T08:03:29.220Z,1021.35
2019-05-15T08:04:32.900Z,1021.45
2019-05-15T08:05:31.485Z,1021.37
2019-05-15T08:06:32.889Z,1021.40
2019-05-15T08:07:34.295Z,1021.37
2019-05-15T08:08:35.695Z,1021.41
2019-05-15T08:09:38.909Z,1021.48
2019-05-15T08:10:39.651Z,1021.29
2019-05-15T08:11:39.833Z,1021.42
2019-05-15T08:12:41.243Z,1021.34
2019-05-15T08:13:42.645Z,1021.42
2019-05-15T08:14:47.042Z,1021.46
2019-05-15T08:15:45.405Z,1021.34
2019-05-15T08:16:48.568Z,1021.25
2019-05-15T08:18:03.255Z,1021.29
2019-05-15T08:18:49.525Z,1021.24
2019-05-15T08:19:50.931Z,1021.34
2019-05-15T08:20:52.346Z,1021.27
2019-05-15T08:21:53.746Z,1021.25
2019-05-15T08:22:55.147Z,1021.16
2019-05-15T08:23:58.867Z,1021.20
2019-05-15T08:24:59.123Z,1021.21
2019-05-15T08:25:59.283Z,1021.19
2019-05-15T08:27:00.694Z,1021.17
2019-05-15T08:28:02.104Z,1021.25
2019-05-15T08:29:03.508Z,1021.14
2019-05-15T08:30:04.915Z,1021.19
2019-05-15T08:31:09.293Z,1021.22
2019-05-15T08:32:08.434Z,1021.18
2019-05-15T08:33:09.068Z,1021.14
2019-05-15T08:34:15.600Z,1021.12
2019-05-15T08:35:12.772Z,1021.12
2019-05-15T08:36:13.189Z,1021.08
2019-05-15T08:37:14.595Z,1021.14
2019-05-15T08:38:17.982Z,1021.20
2019-05-15T08:39:18.957Z,1021.08
2019-05-15T08:40:18.718Z,1021.04
2019-05-15T08:41:20.132Z,1021.07
2019-05-15T08:42:21.529Z,1021.09
2019-05-15T08:43:22.925Z,1021.14
2019-05-15T08:44:24.334Z,1021.15
2019-05-15T08:45:28.139Z,1021.03
2019-05-15T08:46:27.976Z,1021.05
2019-05-15T08:47:29.670Z,1021.19
2019-05-15T08:48:32.543Z,1021.12
2019-05-15T08:49:31.267Z,1020.99
2019-05-15T08:50:32.672Z,1020.92
2019-05-15T08:51:34.078Z,1021.03
2019-05-15T08:52:35.480Z,1020.99
2019-05-15T08:53:37.970Z,1020.98
2019-05-15T08:54:38.410Z,1020.92
2019-05-15T08:55:39.610Z,1021.04
2019-05-15T08:56:41.009Z,1021.00
2019-05-15T08:57:42.426Z,1020.98
2019-05-15T08:58:43.821Z,1021.03
2019-05-15T08:59:45.231Z,1021.08
2019-05-15T09:00:51.375Z,1021.04
2019-05-15T09:01:48.971Z,1021.06
2019-05-15T09:02:49.386Z,1020.92
2019-05-15T09:03:50.790Z,1021.10
2019-05-15T09:04:52.197Z,1021.02
2019-05-15T09:05:53.604Z,1021.10
2019-05-15T09:06:55.033Z,1021.03
2019-05-15T09:07:57.979Z,1021.01
2019-05-15T09:08:58.491Z,1020.87
2019-05-15T09:09:59.192Z,1021.05
2019-05-15T09:11:00.582Z,1020.95
2019-05-15T09:12:01.993Z,1020.86
2019-05-15T09:13:03.401Z,1020.89
2019-05-15T09:14:04.804Z,1020.88
2019-05-15T09:15:07.736Z,1020.86
2019-05-15T09:16:08.352Z,1020.91
2019-05-15T09:17:08.923Z,1020.85
2019-05-15T09:18:16.040Z,1020.92
2019-05-15T09:19:11.724Z,1020.93
2019-05-15T09:20:13.135Z,1020.89
2019-05-15T09:21:14.538Z,1020.84
2019-05-15T09:22:18.530Z,1020.90
2019-05-15T09:23:19.240Z,1020.83
2019-05-15T09:24:19.903Z,1020.80
2019-05-15T09:25:20.062Z,1020.85
2019-05-15T09:26:21.476Z,1020.71
2019-05-15T09:27:22.894Z,1020.73
2019-05-15T09:28:24.297Z,1020.73
2019-05-15T09:29:25.698Z,1020.78
2019-05-15T09:30:28.613Z,1020.66
2019-05-15T09:31:28.626Z,1020.63
2019-05-15T09:32:29.855Z,1020.70
2019-05-15T09:33:31.272Z,1020.66
2019-05-15T09:34:46.879Z,1020.72
2019-05-15T09:35:34.039Z,1020.63
2019-05-15T09:36:35.450Z,1020.62
2019-05-15T09:37:38.618Z,1020.61
2019-05-15T09:38:39.056Z,1020.61
2019-05-15T09:39:40.265Z,1020.63
2019-05-15T09:40:46.156Z,1020.57
2019-05-15T09:41:43.023Z,1020.62
2019-05-15T09:42:44.425Z,1020.58
2019-05-15T09:43:45.833Z,1020.57
2019-05-15T09:44:48.633Z,1020.49
2019-05-15T09:45:49.222Z,1020.42
2019-05-15T09:46:50.061Z,1020.42
2019-05-15T09:47:51.489Z,1020.57
2019-05-15T09:48:52.973Z,1020.42
2019-05-15T09:49:54.501Z,1020.33
2019-05-15T09:50:58.525Z,1020.44
2019-05-15T09:51:58.601Z,1020.39
2019-05-15T09:52:59.018Z,1020.41
2019-05-15T09:54:00.178Z,1020.46
2019-05-15T09:55:02.106Z,1020.38
2019-05-15T09:56:03.385Z,1020.30
2019-05-15T09:57:04.797Z,1020.41
2019-05-15T09:58:08.091Z,1020.43
2019-05-15T09:59:08.809Z,1020.48
2019-05-15T10:00:09.723Z,1020.47
2019-05-15T10:01:11.121Z,1020.48
2019-05-15T10:02:12.587Z,1020.43
2019-05-15T10:03:14.010Z,1020.52
2019-05-15T10:04:15.438Z,1020.47
2019-05-15T10:05:18.515Z,1020.45
2019-05-15T10:06:20.553Z,1020.42
2019-05-15T10:07:19.681Z,1020.45
2019-05-15T10:08:21.511Z,1020.42
2019-05-15T10:09:22.450Z,1020.49
2019-05-15T10:10:23.988Z,1020.43
2019-05-15T10:11:25.398Z,1020.36
2019-05-15T10:12:33.894Z,1020.36
2019-05-15T10:13:28.951Z,1020.42
2019-05-15T10:14:29.762Z,1020.35
2019-05-15T10:15:30.959Z,1020.29
2019-05-15T10:16:32.392Z,1020.22
2019-05-15T10:17:33.822Z,1020.22
2019-05-15T10:18:35.248Z,1020.26
2019-05-15T10:19:36.658Z,1020.22
2019-05-15T10:20:38.060Z,1020.21
2019-05-15T10:21:39.965Z,1020.18
2019-05-15T10:22:40.877Z,1020.26
2019-05-15T10:23:42.280Z,1020.16
2019-05-15T10:24:43.701Z,1020.20
2019-05-15T10:25:45.095Z,1020.12
2019-05-15T10:26:48.884Z,1020.21
2019-05-15T10:27:48.791Z,1020.20
2019-05-15T10:28:49.683Z,1020.13
2019-05-15T10:29:50.727Z,1020.11
2019-05-15T10:30:52.173Z,1020.05
2019-05-15T10:31:53.580Z,1020.06
2019-05-15T10:32:54.985Z,1020.02
2019-05-15T10:33:58.161Z,1020.09
2019-05-15T10:34:58.624Z,1020.09
2019-05-15T10:35:59.275Z,1020.01
2019-05-15T10:37:00.496Z,1020.08
2019-05-15T10:38:01.900Z,1020.04
2019-05-15T10:39:03.335Z,1020.00
2019-05-15T10:40:04.722Z,1019.97
2019-05-15T10:41:13.897Z,1020.00
2019-05-15T10:42:08.198Z,1019.96
2019-05-15T10:43:09.237Z,1019.93
2019-05-15T10:44:10.228Z,1019.88
2019-05-15T10:45:11.645Z,1019.95
2019-05-15T10:46:13.746Z,1019.98
2019-05-15T10:47:14.414Z,1019.93
2019-05-15T10:48:18.718Z,1019.95
2019-05-15T10:49:18.928Z,1019.90
2019-05-15T10:50:19.038Z,1019.93
2019-05-15T10:51:19.988Z,1019.91
2019-05-15T10:52:21.510Z,1019.90
2019-05-15T10:53:22.896Z,1019.94
2019-05-15T10:54:24.306Z,1019.88
2019-05-15T10:55:25.713Z,1019.87
2019-05-15T10:56:28.988Z,1019.88
2019-05-15T10:57:28.507Z,1019.86
2019-05-15T10:58:29.913Z,1019.88
2019-05-15T10:59:31.322Z,1019.90
2019-05-15T11:00:32.727Z,1019.85
2019-05-15T11:01:34.137Z,1019.84
2019-05-15T11:02:35.552Z,1019.82
2019-05-15T11:03:39.716Z,1019.77
2019-05-15T11:04:39.290Z,1019.84
2019-05-15T11:05:45.328Z,1019.80
2019-05-15T11:06:41.033Z,1019.81
2019-05-15T11:07:42.442Z,1019.83
2019-05-15T11:08:43.854Z,1019.83
2019-05-15T11:09:45.279Z,1019.82
2019-05-15T11:10:49.206Z,1019.83
2019-05-15T11:11:51.201Z,1019.79
2019-05-15T11:12:49.388Z,1019.88
2019-05-15T11:13:50.801Z,1019.94
2019-05-15T11:14:52.208Z,1019.85
2019-05-15T11:15:53.616Z,1019.89
2019-05-15T11:16:55.045Z,1019.83
2019-05-15T11:17:58.305Z,1019.85
2019-05-15T11:18:58.560Z,1019.80
2019-05-15T11:19:59.182Z,1019.74
2019-05-15T11:21:00.588Z,1019.79
2019-05-15T11:22:02.020Z,1019.73
2019-05-15T11:23:03.411Z,1019.73
2019-05-15T11:24:04.810Z,1019.69
2019-05-15T11:25:09.259Z,1019.80
2019-05-15T11:26:08.772Z,1019.79
2019-05-15T11:27:09.981Z,1019.73
2019-05-15T11:28:10.341Z,1019.74
2019-05-15T11:29:11.749Z,1019.70
2019-05-15T11:30:13.150Z,1019.70
2019-05-15T11:31:14.559Z,1019.66
2019-05-15T11:32:15.964Z,1019.66
2019-05-15T11:33:18.850Z,1019.60
2019-05-15T11:34:18.823Z,1019.64
2019-05-15T11:35:20.126Z,1019.65
2019-05-15T11:36:21.508Z,1019.66
2019-05-15T11:37:22.931Z,1019.65
2019-05-15T11:38:24.332Z,1019.62
2019-05-15T11:39:25.741Z,1019.61
2019-05-15T11:40:28.404Z,1019.67
2019-05-15T11:41:29.565Z,1019.63
2019-05-15T11:42:29.914Z,1019.56
2019-05-15T11:43:31.318Z,1019.52
2019-05-15T11:44:32.731Z,1019.57
2019-05-15T11:45:34.142Z,1019.56
2019-05-15T11:46:35.541Z,1019.50
2019-05-15T11:47:39.099Z,1019.59
2019-05-15T11:48:39.146Z,1019.62
2019-05-15T11:49:39.671Z,1019.56
2019-05-15T11:50:41.078Z,1019.55
2019-05-15T11:51:42.503Z,1019.53
2019-05-15T11:52:43.919Z,1019.56
2019-05-15T11:53:45.323Z,1019.54
2019-05-15T11:54:49.191Z,1019.45
2019-05-15T11:55:48.268Z,1019.56
2019-05-15T11:56:49.484Z,1019.48
2019-05-15T11:57:52.316Z,1019.46
2019-05-15T11:58:52.251Z,1019.42
2019-05-15T11:59:55.361Z,1019.41
2019-05-15T12:00:55.067Z,1019.45
2019-05-15T12:01:58.028Z,1019.44
2019-05-15T12:02:58.414Z,1019.46
2019-05-15T12:03:59.255Z,1019.42
2019-05-15T12:05:00.629Z,1019.46
2019-05-15T12:06:14.789Z,1019.43
2019-05-15T12:07:03.411Z,1019.35
2019-05-15T12:08:04.805Z,1019.34
2019-05-15T12:09:06.226Z,1019.36
2019-05-15T12:10:10.522Z,1019.36
2019-05-15T12:11:11.828Z,1019.40
2019-05-15T12:12:10.406Z,1019.36
2019-05-15T12:13:11.804Z,1019.39
2019-05-15T12:14:13.204Z,1019.42
2019-05-15T12:15:14.599Z,1019.39
2019-05-15T12:16:16.002Z,1019.43
2019-05-15T12:17:18.959Z,1019.37
2019-05-15T12:18:18.771Z,1019.33
2019-05-15T12:19:20.190Z,1019.41
2019-05-15T12:20:21.584Z,1019.45
2019-05-15T12:21:22.981Z,1019.40
2019-05-15T12:22:24.386Z,1019.42